createdAt,value
2018-11-07T00:00:54.131Z,29.47
2018-11-07T00:03:20.130Z,30.40
2018-11-07T00:05:46.128Z,28.57
2018-11-07T00:08:12.242Z,30.17
2018-11-07T00:10:38.129Z,29.03
2018-11-07T00:13:04.099Z,28.90
2018-11-07T00:15:30.082Z,27.53
2018-11-07T00:17:56.069Z,29.03
2018-11-07T00:20:22.066Z,30.20
2018-11-07T00:22:48.028Z,29.60
2018-11-07T00:25:14.000Z,27.23
2018-11-07T00:27:40.024Z,27.23
2018-11-07T00:30:06.076Z,27.47
2018-11-07T00:32:31.992Z,25.83
2018-11-07T00:34:58.025Z,25.87
2018-11-07T00:37:24.722Z,26.17
2018-11-07T00:39:51.436Z,25.60
2018-11-07T00:42:17.474Z,26.83
2018-11-07T00:44:43.413Z,27.37
2018-11-07T00:47:10.145Z,26.40
2018-11-07T00:49:36.873Z,26.40
2018-11-07T00:52:02.847Z,25.40
2018-11-07T00:54:28.812Z,25.90
2018-11-07T00:56:54.820Z,26.20
2018-11-07T00:59:20.796Z,26.40
2018-11-07T01:01:46.769Z,27.00
2018-11-07T01:04:12.741Z,25.30
2018-11-07T01:06:38.733Z,25.10
2018-11-07T01:09:04.705Z,25.67
2018-11-07T01:11:30.684Z,23.50
2018-11-07T01:13:56.637Z,23.40
2018-11-07T01:16:22.612Z,21.30
2018-11-07T01:18:48.608Z,23.80
2018-11-07T01:21:14.606Z,21.60
2018-11-07T01:23:40.589Z,22.17
2018-11-07T01:26:06.564Z,21.87
2018-11-07T01:28:32.549Z,20.97
2018-11-07T01:30:59.288Z,20.77
2018-11-07T01:33:26.028Z,21.87
2018-11-07T01:35:52.011Z,21.47
2018-11-07T01:38:17.996Z,22.50
2018-11-07T01:40:43.971Z,21.63
2018-11-07T01:43:09.974Z,19.70
2018-11-07T01:45:35.956Z,20.27
2018-11-07T01:48:02.677Z,22.70
2018-11-07T01:50:28.666Z,21.57
2018-11-07T01:52:54.649Z,20.90
2018-11-07T01:55:20.657Z,19.67
2018-11-07T01:57:47.368Z,19.73
2018-11-07T02:00:13.357Z,20.47
2018-11-07T02:02:39.354Z,20.37
2018-11-07T02:05:06.090Z,20.77
2018-11-07T02:07:32.817Z,20.40
2018-11-07T02:09:59.553Z,22.27
2018-11-07T02:12:26.290Z,23.10
2018-11-07T02:14:52.278Z,21.77
2018-11-07T02:17:18.250Z,20.00
2018-11-07T02:19:44.987Z,22.27
2018-11-07T02:22:11.692Z,18.67
2018-11-07T02:24:37.694Z,21.57
2018-11-07T02:27:03.680Z,18.83
2018-11-07T02:29:30.421Z,21.23
2018-11-07T02:31:57.154Z,20.30
2018-11-07T02:34:23.141Z,19.30
2018-11-07T02:36:49.142Z,20.10
2018-11-07T02:39:15.095Z,21.47
2018-11-07T02:41:41.098Z,19.90
2018-11-07T02:44:07.107Z,20.27
2018-11-07T02:46:33.101Z,20.27
2018-11-07T02:48:59.824Z,18.90
2018-11-07T02:51:25.841Z,18.23
2018-11-07T02:53:51.825Z,17.90
2018-11-07T02:56:17.829Z,19.70
2018-11-07T02:58:43.816Z,18.03
2018-11-07T03:01:09.821Z,17.93
2018-11-07T03:03:35.804Z,17.27
2018-11-07T03:06:01.782Z,17.83
2018-11-07T03:08:27.794Z,18.90
2018-11-07T03:10:53.796Z,18.20
2018-11-07T03:13:19.791Z,17.83
2018-11-07T03:15:45.769Z,17.07
2018-11-07T03:18:11.748Z,15.90
2018-11-07T03:20:37.787Z,17.70
2018-11-07T03:23:03.769Z,18.73
2018-11-07T03:25:30.501Z,18.03
2018-11-07T03:27:57.217Z,18.63
2018-11-07T03:30:23.211Z,18.20
2018-11-07T03:32:49.176Z,18.53
2018-11-07T03:35:15.173Z,18.67
2018-11-07T03:37:41.144Z,21.20
2018-11-07T03:40:07.868Z,18.83
2018-11-07T03:42:33.843Z,17.57
2018-11-07T03:44:59.819Z,18.67
2018-11-07T03:47:26.556Z,17.63
2018-11-07T03:49:52.534Z,17.20
2018-11-07T03:52:18.509Z,17.70
2018-11-07T03:54:45.249Z,16.17
2018-11-07T03:57:11.978Z,15.80
2018-11-07T03:59:37.959Z,14.90
2018-11-07T04:02:03.948Z,15.07
2018-11-07T04:04:29.954Z,13.90
2018-11-07T04:06:56.681Z,14.13
2018-11-07T04:09:22.670Z,15.13
2018-11-07T04:11:48.661Z,18.33
2018-11-07T04:14:14.644Z,16.33
2018-11-07T04:16:40.638Z,14.90
2018-11-07T04:19:06.621Z,14.50
2018-11-07T04:21:33.356Z,17.70
2018-11-07T04:23:59.372Z,14.83
2018-11-07T04:26:25.353Z,15.23
2018-11-07T04:28:51.333Z,15.00
2018-11-07T04:31:18.048Z,13.40
2018-11-07T04:33:44.046Z,16.87
2018-11-07T04:36:10.023Z,15.20
2018-11-07T04:38:36.750Z,15.87
2018-11-07T04:41:03.474Z,16.07
2018-11-07T04:43:29.461Z,17.00
2018-11-07T04:45:55.444Z,15.40
2018-11-07T04:48:22.197Z,15.43
2018-11-07T04:50:48.164Z,15.83
2018-11-07T04:53:14.137Z,15.33
2018-11-07T04:55:40.120Z,16.23
2018-11-07T04:58:06.103Z,15.10
2018-11-07T05:00:32.079Z,14.93
2018-11-07T05:02:58.072Z,16.07
2018-11-07T05:05:24.059Z,16.90
2018-11-07T05:07:50.090Z,15.17
2018-11-07T05:10:16.024Z,16.13
2018-11-07T05:12:41.991Z,15.63
2018-11-07T05:15:07.972Z,16.20
2018-11-07T05:17:33.951Z,15.10
2018-11-07T05:20:00.673Z,15.23
2018-11-07T05:22:27.412Z,16.47
2018-11-07T05:24:53.396Z,16.70
2018-11-07T05:27:19.381Z,16.37
2018-11-07T05:29:46.088Z,16.37
2018-11-07T05:32:12.081Z,17.53
2018-11-07T05:34:38.064Z,16.73
2018-11-07T05:37:04.775Z,15.80
2018-11-07T05:39:30.747Z,15.80
2018-11-07T05:41:56.723Z,16.23
2018-11-07T05:44:22.698Z,17.33
2018-11-07T05:46:48.658Z,17.50
2018-11-07T05:49:14.655Z,15.37
2018-11-07T05:51:40.669Z,16.50
2018-11-07T05:54:06.647Z,16.53
2018-11-07T05:56:33.385Z,15.47
2018-11-07T05:58:59.369Z,14.73
2018-11-07T06:01:25.352Z,19.73
2018-11-07T06:04:01.354Z,19.07
2018-11-07T06:06:27.392Z,22.30
2018-11-07T06:08:53.364Z,20.20
2018-11-07T06:11:26.963Z,21.10
2018-11-07T06:13:52.960Z,18.30
2018-11-07T06:16:18.983Z,19.63
2018-11-07T06:18:44.930Z,18.40
2018-11-07T06:21:10.930Z,18.63
2018-11-07T06:23:36.953Z,18.90
2018-11-07T06:26:02.921Z,19.40
2018-11-07T06:28:28.900Z,19.70
2018-11-07T06:30:54.881Z,18.60
2018-11-07T06:33:20.891Z,20.33
2018-11-07T06:35:46.888Z,19.97
2018-11-07T06:38:13.652Z,17.30
2018-11-07T06:40:39.652Z,18.00
2018-11-07T06:43:06.366Z,18.37
2018-11-07T06:45:32.376Z,18.20
2018-11-07T06:47:58.367Z,18.07
2018-11-07T06:50:24.343Z,18.63
2018-11-07T06:52:50.324Z,16.80
2018-11-07T06:55:16.366Z,16.90
2018-11-07T06:57:43.059Z,16.73
2018-11-07T07:00:09.053Z,16.10
2018-11-07T07:02:35.037Z,16.47
2018-11-07T07:05:01.003Z,17.10
2018-11-07T07:07:26.988Z,16.60
2018-11-07T07:09:52.961Z,15.00
2018-11-07T07:12:19.732Z,14.30
2018-11-07T07:14:45.700Z,15.83
2018-11-07T07:17:11.669Z,16.20
2018-11-07T07:19:37.664Z,15.50
2018-11-07T07:22:03.628Z,14.07
2018-11-07T07:24:29.619Z,14.43
2018-11-07T07:26:56.337Z,14.53
2018-11-07T07:29:22.335Z,14.20
2018-11-07T07:31:48.312Z,14.07
2018-11-07T07:34:15.032Z,12.70
2018-11-07T07:36:41.017Z,14.00
2018-11-07T07:39:07.001Z,15.17
2018-11-07T07:41:33.720Z,12.90
2018-11-07T07:44:00.476Z,15.30
2018-11-07T07:46:27.212Z,13.53
2018-11-07T07:48:53.928Z,12.90
2018-11-07T07:51:19.916Z,14.30
2018-11-07T07:53:45.908Z,13.40
2018-11-07T07:56:11.892Z,13.40
2018-11-07T07:58:37.916Z,13.13
2018-11-07T08:01:03.899Z,14.00
2018-11-07T08:03:29.957Z,13.90
2018-11-07T08:05:56.003Z,14.17
2018-11-07T08:08:21.990Z,14.10
2018-11-07T08:10:47.972Z,12.93
2018-11-07T08:13:13.965Z,13.40
2018-11-07T08:15:39.969Z,12.53
2018-11-07T08:18:05.949Z,14.27
2018-11-07T08:20:31.937Z,13.43
2018-11-07T08:22:57.908Z,13.27
2018-11-07T08:25:30.899Z,15.00
2018-11-07T08:27:56.870Z,13.30
2018-11-07T08:30:22.854Z,14.07
2018-11-07T08:32:48.836Z,14.30
2018-11-07T08:35:15.560Z,16.73
2018-11-07T08:37:41.553Z,15.43
2018-11-07T08:40:07.517Z,15.20
2018-11-07T08:42:34.236Z,15.77
2018-11-07T08:45:00.217Z,15.47
2018-11-07T08:47:26.200Z,13.53
2018-11-07T08:49:52.923Z,16.13
2018-11-07T08:52:18.901Z,15.77
2018-11-07T08:54:44.968Z,13.90
2018-11-07T08:57:10.900Z,14.33
2018-11-07T08:59:36.885Z,13.60
2018-11-07T09:02:02.888Z,13.30
2018-11-07T09:04:28.855Z,14.50
2018-11-07T09:06:54.833Z,14.70
2018-11-07T09:09:20.816Z,13.50
2018-11-07T09:11:46.779Z,13.47
2018-11-07T09:14:12.765Z,15.33
2018-11-07T09:16:38.729Z,13.93
2018-11-07T09:19:04.717Z,12.30
2018-11-07T09:21:31.431Z,11.67
2018-11-07T09:23:57.427Z,11.80
2018-11-07T09:26:23.430Z,9.40
2018-11-07T09:28:49.428Z,11.27
2018-11-07T09:31:16.180Z,10.13
2018-11-07T09:33:42.897Z,10.30
2018-11-07T09:36:08.897Z,10.17
2018-11-07T09:38:34.873Z,9.43
2018-11-07T09:41:00.849Z,9.57
2018-11-07T09:43:26.828Z,10.07
2018-11-07T09:45:52.828Z,10.60
2018-11-07T09:48:19.582Z,10.73
2018-11-07T09:50:45.529Z,10.53
2018-11-07T09:53:11.523Z,11.73
2018-11-07T09:55:38.247Z,10.40
2018-11-07T09:58:04.972Z,11.50
2018-11-07T10:00:30.949Z,10.17
2018-11-07T10:02:56.928Z,9.93
2018-11-07T10:05:23.719Z,10.23
2018-11-07T10:07:50.385Z,11.10
2018-11-07T10:10:16.391Z,9.90
2018-11-07T10:12:42.382Z,9.50
2018-11-07T10:15:08.360Z,9.73
2018-11-07T10:17:34.381Z,9.43
2018-11-07T10:20:00.385Z,10.93
2018-11-07T10:22:26.416Z,11.27
2018-11-07T10:24:52.393Z,11.13
2018-11-07T10:27:18.555Z,11.67
2018-11-07T10:29:44.727Z,10.70
2018-11-07T10:32:10.355Z,11.10
2018-11-07T10:34:37.134Z,10.60
2018-11-07T10:37:03.043Z,9.90
2018-11-07T10:39:29.036Z,10.10
2018-11-07T10:41:55.751Z,9.23
2018-11-07T10:44:21.764Z,8.00
2018-11-07T10:46:47.716Z,9.83
2018-11-07T10:49:13.685Z,10.90
2018-11-07T10:51:39.724Z,8.60
2018-11-07T10:54:06.388Z,10.67
2018-11-07T10:56:32.384Z,9.70
2018-11-07T10:58:58.360Z,8.30
2018-11-07T11:01:25.095Z,10.60
2018-11-07T11:03:51.825Z,9.30
2018-11-07T11:06:18.568Z,24.23
2018-11-07T11:08:45.312Z,7.83
2018-11-07T11:11:12.125Z,8.20
2018-11-07T11:13:38.052Z,8.60
2018-11-07T11:16:04.021Z,8.07
2018-11-07T11:18:30.009Z,8.20
2018-11-07T11:20:55.983Z,8.57
2018-11-07T11:23:22.120Z,10.40
2018-11-07T11:25:48.141Z,8.57
2018-11-07T11:28:14.832Z,10.17
2018-11-07T11:30:41.556Z,6.10
2018-11-07T11:33:07.573Z,5.47
2018-11-07T11:35:33.540Z,6.17
2018-11-07T11:37:59.520Z,6.30
2018-11-07T11:40:25.556Z,4.97
2018-11-07T11:42:51.615Z,6.17
2018-11-07T11:45:17.613Z,5.50
2018-11-07T11:47:44.330Z,5.60
2018-11-07T11:50:10.318Z,5.23
2018-11-07T11:52:36.313Z,5.03
2018-11-07T11:55:03.003Z,5.23
2018-11-07T11:57:28.986Z,5.70
2018-11-07T11:59:55.268Z,5.10
2018-11-07T12:02:21.811Z,4.50
2018-11-07T12:04:47.717Z,5.40
2018-11-07T12:07:13.713Z,5.10
2018-11-07T12:09:39.679Z,4.73
2018-11-07T12:12:05.701Z,5.03
2018-11-07T12:14:31.733Z,5.47
2018-11-07T12:16:57.708Z,4.93
2018-11-07T12:19:23.672Z,4.33
2018-11-07T12:21:49.662Z,5.87
2018-11-07T12:24:15.642Z,6.30
2018-11-07T12:26:42.436Z,9.37
2018-11-07T12:29:09.095Z,9.70
2018-11-07T12:31:35.079Z,8.90
2018-11-07T12:34:01.069Z,8.77
2018-11-07T12:36:27.825Z,8.80
2018-11-07T12:38:54.547Z,9.40
2018-11-07T12:41:20.589Z,9.67
2018-11-07T12:43:46.579Z,10.20
2018-11-07T12:46:12.657Z,9.97
2018-11-07T12:48:38.648Z,10.13
2018-11-07T12:51:05.394Z,10.60
2018-11-07T12:53:31.388Z,10.33
2018-11-07T12:55:57.369Z,8.40
2018-11-07T12:58:23.563Z,8.70
2018-11-07T13:00:50.096Z,8.70
2018-11-07T13:03:16.821Z,8.70
2018-11-07T13:05:42.809Z,9.43
2018-11-07T13:08:08.779Z,9.80
2018-11-07T13:10:34.760Z,9.27
2018-11-07T13:13:00.773Z,10.53
2018-11-07T13:15:26.761Z,9.07
2018-11-07T13:17:52.738Z,8.93
2018-11-07T13:20:18.726Z,9.03
2018-11-07T13:22:44.687Z,10.03
2018-11-07T13:25:10.680Z,9.83
2018-11-07T13:27:36.648Z,11.47
2018-11-07T13:30:02.648Z,8.73
2018-11-07T13:32:28.637Z,8.43
2018-11-07T13:34:54.629Z,8.80
2018-11-07T13:37:20.663Z,8.50
2018-11-07T13:39:46.572Z,9.57
2018-11-07T13:42:13.309Z,10.27
2018-11-07T13:44:39.290Z,11.97
2018-11-07T13:47:05.264Z,10.47
2018-11-07T13:49:32.008Z,8.10
2018-11-07T13:51:58.744Z,7.60
2018-11-07T13:54:25.448Z,8.40
2018-11-07T13:56:51.408Z,7.17
2018-11-07T13:59:18.147Z,6.73
2018-11-07T14:01:45.072Z,7.67
2018-11-07T14:04:11.096Z,7.70
2018-11-07T14:06:37.080Z,6.60
2018-11-07T14:09:03.097Z,7.63
2018-11-07T14:11:29.061Z,7.53
2018-11-07T14:13:55.032Z,8.13
2018-11-07T14:16:21.070Z,7.80
2018-11-07T14:18:47.065Z,8.37
2018-11-07T14:21:13.092Z,7.53
2018-11-07T14:23:39.088Z,7.77
2018-11-07T14:26:05.162Z,8.13
2018-11-07T14:28:31.259Z,9.00
2018-11-07T14:30:57.228Z,8.30
2018-11-07T14:33:23.228Z,8.13
2018-11-07T14:35:49.200Z,8.40
2018-11-07T14:38:15.191Z,8.90
2018-11-07T14:40:41.217Z,9.30
2018-11-07T14:43:07.240Z,8.97
2018-11-07T14:45:33.250Z,8.97
2018-11-07T14:48:06.319Z,9.40
2018-11-07T14:50:32.320Z,11.03
2018-11-07T14:52:58.512Z,11.27
2018-11-07T14:55:24.544Z,9.77
2018-11-07T14:57:50.878Z,9.57
2018-11-07T15:00:16.952Z,10.80
2018-11-07T15:02:43.787Z,10.30
2018-11-07T15:05:09.746Z,9.90
2018-11-07T15:07:35.808Z,8.87
2018-11-07T15:10:01.805Z,9.60
2018-11-07T15:12:27.808Z,7.83
2018-11-07T15:14:53.793Z,8.20
2018-11-07T15:17:19.909Z,8.57
2018-11-07T15:19:45.848Z,8.10
2018-11-07T15:22:11.823Z,7.57
2018-11-07T15:24:37.893Z,7.57
2018-11-07T15:27:03.932Z,8.17
2018-11-07T15:29:29.916Z,8.50
2018-11-07T15:31:55.891Z,6.87
2018-11-07T15:34:21.864Z,7.50
2018-11-07T15:36:47.894Z,7.90
2018-11-07T15:39:13.877Z,9.73
2018-11-07T15:41:39.892Z,9.53
2018-11-07T15:44:05.958Z,11.60
2018-11-07T15:46:32.132Z,9.90
2018-11-07T15:48:58.158Z,13.80
2018-11-07T15:51:24.400Z,17.20
2018-11-07T15:53:50.453Z,12.13
2018-11-07T15:56:16.473Z,10.13
2018-11-07T15:58:42.487Z,8.83
2018-11-07T16:01:08.848Z,8.83
2018-11-07T16:03:35.252Z,8.37
2018-11-07T16:06:02.738Z,7.40
2018-11-07T16:08:28.762Z,10.00
2018-11-07T16:10:54.795Z,8.20
2018-11-07T16:13:21.601Z,9.77
2018-11-07T16:15:47.633Z,10.10
2018-11-07T16:18:13.676Z,9.33
2018-11-07T16:20:39.817Z,7.30
2018-11-07T16:23:05.923Z,9.10
2018-11-07T16:25:31.976Z,8.97
2018-11-07T16:27:57.984Z,7.80
2018-11-07T16:30:23.976Z,9.00
2018-11-07T16:32:50.275Z,9.70
2018-11-07T16:35:16.468Z,8.80
2018-11-07T16:37:43.208Z,8.83
2018-11-07T16:40:09.193Z,9.00
2018-11-07T16:42:35.221Z,8.90
2018-11-07T16:45:01.448Z,9.87
2018-11-07T16:47:27.597Z,10.37
2018-11-07T16:49:53.748Z,9.07
2018-11-07T16:52:22.825Z,10.07
2018-11-07T16:54:50.403Z,12.27
2018-11-07T16:57:16.843Z,10.30
2018-11-07T16:59:44.268Z,10.97
2018-11-07T17:02:11.433Z,9.87
2018-11-07T17:04:39.539Z,9.73
2018-11-07T17:07:09.640Z,8.20
2018-11-07T17:09:36.329Z,9.00
2018-11-07T17:12:04.677Z,8.03
2018-11-07T17:14:33.357Z,8.80
2018-11-07T17:17:00.283Z,9.33
2018-11-07T17:19:27.058Z,10.37
2018-11-07T17:21:54.453Z,9.17
2018-11-07T17:24:21.072Z,9.00
2018-11-07T17:26:49.658Z,9.20
2018-11-07T17:29:16.728Z,7.90
2018-11-07T17:31:43.113Z,7.97
2018-11-07T17:34:16.061Z,8.70
2018-11-07T17:36:42.310Z,8.47
2018-11-07T17:39:09.967Z,8.13
2018-11-07T17:41:37.389Z,7.47
2018-11-07T17:44:04.567Z,7.63
2018-11-07T17:46:31.386Z,7.20
2018-11-07T17:48:58.320Z,7.73
2018-11-07T17:51:25.125Z,6.53
2018-11-07T17:53:52.611Z,7.80
2018-11-07T17:56:25.862Z,7.93
2018-11-07T17:58:52.800Z,7.90
2018-11-07T18:01:19.748Z,7.37
2018-11-07T18:03:46.560Z,8.57
2018-11-07T18:06:13.578Z,8.53
2018-11-07T18:08:40.647Z,8.27
2018-11-07T18:11:07.590Z,9.20
2018-11-07T18:13:34.395Z,8.70
2018-11-07T18:16:01.537Z,9.00
2018-11-07T18:18:28.895Z,7.60
2018-11-07T18:20:55.664Z,8.30
2018-11-07T18:23:21.787Z,8.70
2018-11-07T18:25:47.757Z,8.27
2018-11-07T18:28:13.741Z,9.07
2018-11-07T18:30:39.692Z,8.43
2018-11-07T18:33:05.647Z,8.60
2018-11-07T18:35:31.655Z,9.67
2018-11-07T18:37:57.563Z,9.10
2018-11-07T18:40:23.565Z,9.70
2018-11-07T18:42:49.834Z,9.73
2018-11-07T18:45:15.897Z,10.07
2018-11-07T18:47:41.860Z,8.83
2018-11-07T18:50:07.832Z,7.83
2018-11-07T18:52:33.851Z,8.37
2018-11-07T18:54:59.837Z,8.63
2018-11-07T18:57:25.803Z,7.53
2018-11-07T18:59:51.933Z,7.20
2018-11-07T19:02:17.912Z,7.10
2018-11-07T19:04:43.854Z,7.90
2018-11-07T19:07:09.811Z,7.57
2018-11-07T19:09:36.320Z,7.37
2018-11-07T19:12:02.429Z,8.10
2018-11-07T19:14:28.371Z,7.97
2018-11-07T19:16:54.489Z,7.70
2018-11-07T19:19:20.444Z,7.47
2018-11-07T19:21:46.759Z,7.83
2018-11-07T19:24:12.895Z,7.20
2018-11-07T19:26:39.016Z,6.17
2018-11-07T19:29:04.940Z,7.03
2018-11-07T19:31:30.914Z,6.60
2018-11-07T19:33:56.918Z,8.03
2018-11-07T19:36:23.230Z,7.87
2018-11-07T19:38:49.180Z,7.67
2018-11-07T19:41:15.127Z,9.27
2018-11-07T19:43:41.087Z,8.70
2018-11-07T19:46:07.082Z,8.67
2018-11-07T19:48:33.242Z,8.00
2018-11-07T19:50:59.279Z,8.07
2018-11-07T19:53:25.342Z,8.80
2018-11-07T19:55:51.536Z,8.50
2018-11-07T19:58:17.564Z,7.90
2018-11-07T20:00:45.490Z,8.47
2018-11-07T20:03:11.558Z,8.40
2018-11-07T20:05:37.548Z,8.40
2018-11-07T20:08:03.683Z,8.33
2018-11-07T20:10:29.821Z,7.53
2018-11-07T20:12:55.692Z,6.90
2018-11-07T20:15:21.659Z,7.17
2018-11-07T20:17:47.647Z,7.87
2018-11-07T20:20:13.668Z,7.40
2018-11-07T20:22:39.686Z,7.93
2018-11-07T20:25:05.683Z,6.80
2018-11-07T20:27:31.652Z,7.33
2018-11-07T20:29:57.644Z,8.47
2018-11-07T20:32:23.790Z,8.00
2018-11-07T20:34:49.808Z,7.63
2018-11-07T20:37:16.085Z,7.90
2018-11-07T20:39:42.104Z,8.50
2018-11-07T20:44:58.588Z,7.67
2018-11-07T20:47:24.565Z,7.70
2018-11-07T20:49:50.590Z,8.00
2018-11-07T20:52:16.637Z,7.80
2018-11-07T20:54:42.685Z,7.17
2018-11-07T20:57:08.608Z,8.00
2018-11-07T20:59:34.716Z,7.83
2018-11-07T21:02:00.863Z,6.80
2018-11-07T21:04:26.723Z,7.30
2018-11-07T21:06:52.717Z,6.83
2018-11-07T21:09:18.697Z,7.37
2018-11-07T21:11:44.694Z,6.23
2018-11-07T21:14:10.683Z,6.23
2018-11-07T21:16:36.665Z,6.20
2018-11-07T21:19:02.788Z,6.30
2018-11-07T21:21:28.781Z,5.70
2018-11-07T21:23:54.777Z,5.93
2018-11-07T21:26:20.756Z,6.73
2018-11-07T21:28:46.756Z,7.00
2018-11-07T21:31:12.845Z,7.17
2018-11-07T21:33:38.702Z,6.33
2018-11-07T21:36:04.692Z,7.37
2018-11-07T21:38:30.679Z,7.03
2018-11-07T21:40:56.786Z,7.53
2018-11-07T21:43:22.764Z,7.97
2018-11-07T21:45:48.776Z,8.00
2018-11-07T21:48:14.750Z,8.40
2018-11-07T21:50:40.724Z,7.70
2018-11-07T21:53:06.706Z,7.03
2018-11-07T21:55:32.688Z,8.10
2018-11-07T21:57:58.665Z,7.70
2018-11-07T22:00:24.634Z,8.80
2018-11-07T22:02:50.672Z,8.40
2018-11-07T22:05:16.592Z,8.13
2018-11-07T22:07:42.579Z,7.47
2018-11-07T22:10:08.537Z,7.90
2018-11-07T22:12:36.456Z,7.10
2018-11-07T22:15:02.419Z,8.47
2018-11-07T22:17:28.408Z,6.80
2018-11-07T22:19:54.431Z,7.73
2018-11-07T22:22:20.403Z,8.40
2018-11-07T22:24:46.444Z,7.13
2018-11-07T22:27:12.518Z,6.50
2018-11-07T22:29:38.519Z,7.40
2018-11-07T22:32:04.513Z,8.20
2018-11-07T22:34:30.505Z,7.33
2018-11-07T22:36:56.517Z,7.73
2018-11-07T22:39:22.513Z,7.93
2018-11-07T22:41:48.475Z,6.67
2018-11-07T22:44:14.476Z,7.67
2018-11-07T22:46:40.462Z,6.53
2018-11-07T22:49:06.460Z,7.33
2018-11-07T22:51:32.440Z,7.57
2018-11-07T22:53:58.411Z,7.07
2018-11-07T22:56:24.441Z,6.80
2018-11-07T22:58:50.429Z,7.40
2018-11-07T23:01:16.429Z,6.90
2018-11-07T23:03:42.468Z,6.40
2018-11-07T23:06:08.709Z,6.57
2018-11-07T23:08:34.838Z,7.13
2018-11-07T23:11:00.842Z,6.83
2018-11-07T23:13:26.857Z,5.97
2018-11-07T23:15:52.843Z,6.10
2018-11-07T23:18:18.855Z,6.97
2018-11-07T23:20:44.853Z,7.47
2018-11-07T23:23:10.862Z,6.40
2018-11-07T23:25:36.857Z,7.47
2018-11-07T23:28:02.848Z,7.27
2018-11-07T23:30:28.877Z,6.00
2018-11-07T23:32:54.864Z,6.50
2018-11-07T23:35:20.844Z,6.97
2018-11-07T23:37:46.816Z,6.17
2018-11-07T23:40:12.825Z,6.90
2018-11-07T23:42:38.808Z,7.23
2018-11-07T23:45:04.789Z,7.20
2018-11-07T23:47:30.831Z,7.23
2018-11-07T23:49:56.765Z,7.13
2018-11-07T23:52:22.737Z,7.40
2018-11-07T23:54:48.734Z,7.67
2018-11-07T23:57:14.752Z,9.80
2018-11-07T23:59:40.732Z,8.20
